Time;durP1;ratioP1;P1;durP2;ratioP2;P2;SDS_P1;SDS_P2;PMS_P1;PMS_P2;Temp;Humidity;BMP_temperature;BMP_pressure;BME280_temperature;BME280_humidity;BME280_pressure;Samples;Min_cycle;Max_cycle;Signal;HPM_P1;HPM_P2
2022/06/13 00:01:35;;;;;;;14.93;3.58;;;;;;;20.68;65.67;99351.69;5224549;28;20111;-70
2022/06/13 00:04:25;;;;;;;10.25;2.80;;;;;;;20.53;65.92;99330.28;5211313;28;20167;-72
2022/06/13 00:07:15;;;;;;;12.75;3.28;;;;;;;20.56;65.63;99316.41;5225162;28;20064;-72
2022/06/13 00:10:07;;;;;;;5.47;3.17;;;;;;;20.59;65.00;99315.16;5224265;28;20076;-71
2022/06/13 00:12:57;;;;;;;11.70;3.42;;;;;;;20.43;65.05;99302.84;5224311;28;20128;-72
2022/06/13 00:15:47;;;;;;;5.72;2.80;;;;;;;20.22;65.83;99289.47;5223066;28;20526;-72
2022/06/13 00:18:38;;;;;;;6.50;3.22;;;;;;;20.24;65.79;99296.31;5223383;28;20053;-71
2022/06/13 00:21:31;;;;;;;7.78;2.78;;;;;;;19.92;68.25;99305.84;5223389;28;20052;-72
2022/06/13 00:24:21;;;;;;;6.70;2.65;;;;;;;19.94;67.24;99295.72;5223159;28;20228;-71
2022/06/13 00:27:12;;;;;;;5.25;3.15;;;;;;;20.04;66.68;99304.28;5223096;28;20424;-71
2022/06/13 00:30:07;;;;;;;7.03;2.97;;;;;;;20.01;67.25;99312.75;5207277;28;20137;-71
2022/06/13 00:32:57;;;;;;;6.90;3.20;;;;;;;19.95;67.64;99305.47;5222861;28;20394;-71
2022/06/13 00:35:47;;;;;;;9.43;3.10;;;;;;;20.00;66.69;99286.00;5222079;28;20056;-71
2022/06/13 00:38:38;;;;;;;7.88;2.78;;;;;;;19.92;66.04;99303.97;5223340;28;20550;-71
2022/06/13 00:41:31;;;;;;;8.30;2.83;;;;;;;20.13;66.64;99295.03;5207393;28;20124;-72
2022/06/13 00:44:31;;;;;;;4.77;2.87;;;;;;;19.87;68.01;99287.63;5208186;28;20045;-72
2022/06/13 00:47:21;;;;;;;4.88;3.00;;;;;;;19.93;66.52;99288.66;5222812;28;20051;-71
2022/06/13 00:50:19;;;;;;;4.07;2.63;;;;;;;19.96;66.12;99282.88;5222296;28;20052;-70
2022/06/13 00:53:09;;;;;;;6.20;2.70;;;;;;;20.03;65.60;99281.06;5222246;28;20056;-72
2022/06/13 00:56:05;;;;;;;6.93;3.25;;;;;;;20.18;66.26;99281.78;5221814;28;20063;-72
2022/06/13 00:59:00;;;;;;;3.47;2.80;;;;;;;20.05;66.46;99302.41;5196648;28;20044;-70
2022/06/13 01:01:51;;;;;;;4.03;3.13;;;;;;;19.88;67.68;99304.59;5221866;28;20049;-71
2022/06/13 01:04:41;;;;;;;5.65;3.00;;;;;;;19.82;67.43;99297.28;5222060;28;20060;-71
2022/06/13 01:07:32;;;;;;;6.20;3.45;;;;;;;20.01;67.90;99291.22;5222182;28;20081;-71
2022/06/13 01:13:53;;;;;;;7.13;2.90;;;;;;;19.86;67.71;99293.16;5222256;28;20136;-72
2022/06/13 01:17:04;;;;;;;5.15;2.92;;;;;;;19.83;68.24;99291.69;5222007;28;20064;-70
2022/06/13 01:20:12;;;;;;;5.65;3.38;;;;;;;19.74;68.69;99295.59;5222348;28;20525;-71
2022/06/13 01:23:43;;;;;;;8.48;3.47;;;;;;;19.45;70.77;99264.28;5206673;28;20417;-71
2022/06/13 01:26:57;;;;;;;5.38;3.33;;;;;;;19.91;69.02;99296.13;5137779;28;20105;-70
2022/06/13 01:29:59;;;;;;;5.90;3.60;;;;;;;19.79;69.72;99286.91;5221998;28;20080;-71
2022/06/13 01:33:02;;;;;;;8.73;3.83;;;;;;;19.63;71.45;99285.31;5221603;28;20053;-71
2022/06/13 01:36:02;;;;;;;21.80;4.33;;;;;;;19.60;70.88;99283.88;5221600;28;20045;-71
2022/06/13 01:39:01;;;;;;;15.20;5.03;;;;;;;19.36;71.99;99271.66;5189135;28;20052;-71
2022/06/13 01:42:27;;;;;;;7.80;3.60;;;;;;;19.68;69.46;99283.75;5221945;28;20136;-72
2022/06/13 01:45:39;;;;;;;6.13;3.67;;;;;;;19.79;69.04;99273.47;5206957;28;20147;-70
2022/06/13 01:48:37;;;;;;;6.80;3.35;;;;;;;19.71;68.63;99277.16;5217476;28;20092;-71
2022/06/13 01:51:53;;;;;;;5.72;3.53;;;;;;;19.52;69.33;99273.25;5221385;28;20060;-70
2022/06/13 01:54:57;;;;;;;10.60;3.38;;;;;;;19.54;69.24;99249.69;5201827;28;20045;-71
2022/06/13 01:58:11;;;;;;;6.50;4.40;;;;;;;19.68;68.83;99264.91;5222711;28;20053;-71
2022/06/13 02:01:09;;;;;;;5.30;3.38;;;;;;;19.42;69.66;99270.88;5221209;28;20450;-70
2022/06/13 02:04:07;;;;;;;8.02;4.07;;;;;;;19.53;70.20;99282.97;5221852;28;20203;-70
2022/06/13 02:07:13;;;;;;;8.15;4.35;;;;;;;19.46;70.97;99292.84;5221541;28;20053;-70
2022/06/13 02:10:10;;;;;;;11.93;4.55;;;;;;;19.66;70.51;99296.53;5209796;28;20083;-70
2022/06/13 02:13:06;;;;;;;12.32;4.72;;;;;;;19.68;70.26;99291.00;5222574;28;20426;-73
2022/06/13 02:16:00;;;;;;;10.63;4.88;;;;;;;19.71;70.44;99304.88;5194501;28;20044;-71
2022/06/13 02:19:04;;;;;;;5.78;3.53;;;;;;;19.70;68.59;99292.47;5222896;28;20052;-71
2022/06/13 02:22:00;;;;;;;7.35;3.80;;;;;;;19.73;68.49;99287.69;5213248;28;20262;-70
2022/06/13 02:24:59;;;;;;;8.00;3.80;;;;;;;19.68;68.11;99289.13;5226857;28;20103;-70
2022/06/13 02:27:58;;;;;;;7.82;4.07;;;;;;;19.64;68.32;99300.47;5226898;28;20491;-70
2022/06/13 02:30:51;;;;;;;8.25;4.53;;;;;;;19.51;68.66;99284.19;5211442;28;20487;-71
2022/06/13 02:33:47;;;;;;;11.02;4.78;;;;;;;19.55;68.40;99288.16;5211409;28;20048;-71
2022/06/13 02:36:44;;;;;;;7.10;4.22;;;;;;;19.64;67.92;99282.47;5226249;28;20068;-70
2022/06/13 02:39:45;;;;;;;7.22;4.15;;;;;;;19.42;69.40;99272.75;5226422;28;20052;-71
2022/06/13 02:42:41;;;;;;;7.07;4.47;;;;;;;18.92;70.64;99261.13;5226052;28;20084;-71
2022/06/13 02:45:43;;;;;;;12.07;3.90;;;;;;;19.18;69.16;99280.19;5226083;28;20163;-70
2022/06/13 02:48:54;;;;;;;6.85;4.10;;;;;;;18.86;70.50;99289.56;5210748;28;20049;-71
2022/06/13 02:51:51;;;;;;;7.63;3.88;;;;;;;19.07;70.01;99295.97;5225769;28;20051;-70
2022/06/13 02:54:50;;;;;;;7.25;4.30;;;;;;;18.98;69.61;99279.16;5221617;28;20055;-71
2022/06/13 02:57:46;;;;;;;8.95;4.32;;;;;;;18.99;69.45;99287.03;5226466;28;20135;-72
2022/06/13 03:00:49;;;;;;;9.48;4.30;;;;;;;18.78;69.73;99279.78;5226101;28;20466;-73
2022/06/13 03:03:54;;;;;;;7.30;4.15;;;;;;;18.87;69.65;99290.41;5211937;28;20048;-71
2022/06/13 03:06:54;;;;;;;9.73;3.70;;;;;;;18.68;69.96;99294.50;5225858;28;20055;-72
2022/06/13 03:10:08;;;;;;;13.85;4.72;;;;;;;18.68;69.60;99299.88;5197510;28;20422;-71
2022/06/13 03:13:03;;;;;;;13.63;4.60;;;;;;;18.63;69.92;99313.84;5225644;28;20068;-71
2022/06/13 03:16:02;;;;;;;9.30;4.30;;;;;;;18.37;70.80;99306.28;5226029;28;20048;-70
2022/06/13 03:18:58;;;;;;;10.20;4.97;;;;;;;18.46;70.02;99304.34;5210877;28;20122;-71
2022/06/13 03:21:56;;;;;;;6.93;4.00;;;;;;;18.45;69.75;99291.97;5225540;28;20174;-70
2022/06/13 03:24:58;;;;;;;12.15;4.32;;;;;;;18.13;70.81;99302.06;5225583;28;20421;-70
2022/06/13 03:28:08;;;;;;;16.10;4.85;;;;;;;18.24;71.08;99312.31;5204937;28;20060;-71
2022/06/13 03:31:02;;;;;;;;;;;;;;;18.06;70.77;99311.84;5220582;28;20079;-72
2022/06/13 03:33:58;;;;;;;9.03;4.07;;;;;;;18.18;70.40;99309.53;5224952;28;20239;-72
2022/06/13 03:37:10;;;;;;;8.10;4.57;;;;;;;18.14;69.53;99310.94;5224299;28;20044;-71
2022/06/13 03:40:06;;;;;;;15.90;4.70;;;;;;;18.04;69.19;99303.16;5213097;28;20466;-71
2022/06/13 03:43:08;;;;;;;17.13;4.55;;;;;;;17.66;70.30;99316.59;5225426;28;20052;-71
2022/06/13 03:46:09;;;;;;;13.70;4.38;;;;;;;17.87;69.44;99323.94;5224860;28;20513;-73
2022/06/13 03:49:08;;;;;;;13.05;4.70;;;;;;;17.95;69.13;99315.84;5225502;28;20495;-73
2022/06/13 03:52:00;;;;;;;9.98;4.63;;;;;;;17.86;69.25;99316.09;5212371;28;20051;-71
2022/06/13 03:54:57;;;;;;;9.55;4.05;;;;;;;17.86;69.02;99316.94;5224728;28;20098;-71
2022/06/13 03:57:58;;;;;;;12.15;4.50;;;;;;;17.99;69.01;99324.34;5224894;28;20491;-71
2022/06/13 04:00:55;;;;;;;10.43;4.50;;;;;;;17.89;68.50;99326.47;5224433;28;20110;-70
2022/06/13 04:03:46;;;;;;;7.82;4.18;;;;;;;17.96;68.29;99322.84;5210296;28;20106;-71
2022/06/13 04:06:42;;;;;;;10.18;4.20;;;;;;;17.41;69.50;99331.19;5224380;28;20051;-70
2022/06/13 04:09:36;;;;;;;13.27;4.93;;;;;;;17.82;68.99;99329.03;5224291;28;20053;-69
2022/06/13 04:12:41;;;;;;;9.52;4.50;;;;;;;17.96;67.86;99328.22;5224375;28;20055;-70
2022/06/13 04:16:05;;;;;;;13.48;4.03;;;;;;;16.87;71.33;99332.06;5224287;28;20049;-71
2022/06/13 04:19:07;;;;;;;13.38;4.40;;;;;;;17.34;70.74;99328.41;5209508;28;20049;-71
2022/06/13 04:22:12;;;;;;;13.57;4.57;;;;;;;17.47;70.13;99335.84;5210143;28;20052;-71
2022/06/13 04:25:30;;;;;;;8.52;4.05;;;;;;;17.59;67.99;99347.81;5224400;28;20052;-71
2022/06/13 04:28:41;;;;;;;10.68;4.13;;;;;;;17.53;68.25;99340.50;5213387;28;20474;-71
2022/06/13 04:31:33;;;;;;;19.27;3.90;;;;;;;17.53;67.45;99327.09;5222103;28;20194;-70
2022/06/13 04:34:32;;;;;;;16.95;4.95;;;;;;;17.27;67.90;99340.84;5224462;28;20585;-71
2022/06/13 04:37:24;;;;;;;16.88;4.10;;;;;;;17.19;68.01;99336.41;5223861;28;20567;-70
2022/06/13 04:40:21;;;;;;;10.40;4.07;;;;;;;17.02;67.91;99348.19;5223784;28;20053;-71
2022/06/13 04:43:14;;;;;;;12.70;3.78;;;;;;;17.22;67.49;99346.75;5223645;28;20045;-71
2022/06/13 04:46:12;;;;;;;12.35;4.55;;;;;;;17.37;67.43;99353.00;5210462;28;20162;-70
2022/06/13 04:49:07;;;;;;;17.33;4.88;;;;;;;17.25;66.28;99367.84;5224109;28;20133;-71
2022/06/13 04:52:00;;;;;;;17.48;4.60;;;;;;;17.11;67.96;99369.41;5218305;28;20499;-70
2022/06/13 04:54:59;;;;;;;10.60;4.28;;;;;;;17.12;68.20;99373.78;5222936;28;20052;-71
2022/06/13 04:57:49;;;;;;;16.30;4.35;;;;;;;17.03;67.31;99360.59;5193418;28;20328;-71
2022/06/13 05:00:42;;;;;;;19.73;4.38;;;;;;;16.88;68.12;99371.22;5192482;28;20166;-70
2022/06/13 05:03:38;;;;;;;16.20;4.20;;;;;;;17.34;67.20;99382.84;5220302;28;20060;-69
2022/06/13 05:06:46;;;;;;;11.85;4.43;;;;;;;17.29;66.76;99384.41;5208672;28;20087;-71
2022/06/13 05:09:41;;;;;;;16.13;4.22;;;;;;;17.17;66.32;99400.03;5223368;28;20106;-71
2022/06/13 05:12:41;;;;;;;13.80;4.43;;;;;;;17.26;66.47;99404.34;5223539;28;20049;-71
2022/06/13 05:15:33;;;;;;;14.35;4.57;;;;;;;16.96;66.72;99413.22;5222236;28;20418;-71
2022/06/13 05:18:35;;;;;;;18.92;4.07;;;;;;;16.66;67.59;99410.28;5203771;28;20419;-71
2022/06/13 05:21:44;;;;;;;13.52;4.22;;;;;;;16.60;69.06;99413.66;5220061;28;20190;-72
2022/06/13 05:24:53;;;;;;;13.00;3.75;;;;;;;16.94;68.40;99407.19;5222047;28;20060;-73
2022/06/13 05:27:43;;;;;;;13.18;5.03;;;;;;;17.31;66.14;99417.19;5223244;28;20067;-74
2022/06/13 05:30:33;;;;;;;18.85;4.30;;;;;;;17.56;65.35;99423.25;5223193;28;20110;-73
2022/06/13 05:33:34;;;;;;;8.50;3.60;;;;;;;17.43;64.60;99428.38;5207672;28;20057;-74
2022/06/13 05:36:26;;;;;;;11.60;3.97;;;;;;;17.44;65.56;99430.03;5221912;28;20151;-75
2022/06/13 05:39:16;;;;;;;12.90;3.72;;;;;;;17.54;64.25;99438.66;5223355;28;20060;-73
2022/06/13 05:42:07;;;;;;;15.07;4.18;;;;;;;17.65;63.89;99424.00;5222593;28;20163;-72
2022/06/13 05:44:57;;;;;;;14.93;3.70;;;;;;;17.40;64.83;99429.56;5219691;28;20053;-72
2022/06/13 05:47:49;;;;;;;14.25;4.25;;;;;;;17.87;64.55;99427.75;5222750;28;20064;-72
2022/06/13 05:50:41;;;;;;;17.98;3.40;;;;;;;17.97;61.76;99431.84;5222528;28;20526;-71
2022/06/13 05:53:31;;;;;;;11.13;3.88;;;;;;;17.71;62.11;99434.03;5222562;28;20072;-72
2022/06/13 05:56:21;;;;;;;13.38;3.67;;;;;;;17.40;62.34;99448.31;5226569;28;20071;-71
2022/06/13 05:59:11;;;;;;;11.25;3.70;;;;;;;18.04;62.11;99448.03;5211312;28;20052;-72
2022/06/13 06:02:01;;;;;;;12.05;3.42;;;;;;;18.47;60.07;99464.44;5225259;28;20503;-72
2022/06/13 06:04:52;;;;;;;11.80;3.13;;;;;;;18.37;59.69;99445.06;5225283;28;20052;-72
2022/06/13 06:07:48;;;;;;;10.80;3.30;;;;;;;17.92;61.66;99465.59;5225643;28;20423;-72
2022/06/13 06:10:38;;;;;;;15.38;3.85;;;;;;;18.07;61.37;99463.78;5225695;28;20057;-71
2022/06/13 06:13:29;;;;;;;9.18;2.90;;;;;;;17.82;61.70;99472.03;5228703;28;20515;-72
2022/06/13 06:16:22;;;;;;;11.77;3.30;;;;;;;18.54;60.64;99465.34;5214066;28;20056;-73
2022/06/13 06:19:12;;;;;;;11.73;3.65;;;;;;;18.69;58.53;99468.91;5220930;28;20049;-73
2022/06/13 06:22:03;;;;;;;8.35;3.15;;;;;;;18.52;58.65;99473.59;5217047;28;20071;-74
2022/06/13 06:24:53;;;;;;;14.27;3.63;;;;;;;18.98;57.66;99468.09;5229959;28;20128;-72
2022/06/13 06:27:43;;;;;;;9.23;3.08;;;;;;;18.65;56.70;99464.09;5229357;28;20067;-72
2022/06/13 06:30:33;;;;;;;11.73;3.45;;;;;;;19.24;55.63;99470.28;5231331;28;20052;-72
2022/06/13 06:33:25;;;;;;;11.18;3.60;;;;;;;18.89;55.98;99479.13;5235951;28;20491;-72
2022/06/13 06:36:15;;;;;;;15.30;2.70;;;;;;;19.12;56.00;99477.16;5235336;28;20122;-72
2022/06/13 06:39:06;;;;;;;8.40;2.78;;;;;;;19.08;56.70;99483.13;5230789;28;20415;-72
2022/06/13 06:41:56;;;;;;;8.07;2.38;;;;;;;19.40;55.32;99482.69;5215810;28;20056;-72
2022/06/13 06:44:47;;;;;;;9.98;2.40;;;;;;;19.77;53.49;99483.53;5226773;28;20526;-72
2022/06/13 06:47:39;;;;;;;10.48;3.03;;;;;;;20.15;52.96;99485.97;5208505;28;20051;-72
2022/06/13 06:50:33;;;;;;;11.48;2.90;;;;;;;19.86;54.19;99479.69;5227557;28;20252;-75
2022/06/13 06:53:26;;;;;;;9.75;2.65;;;;;;;21.21;51.62;99491.25;5199201;28;20142;-74
2022/06/13 07:02:34;;;;;;;9.38;2.10;;;;;;;21.62;48.69;99485.00;5222721;28;20216;-74
2022/06/13 07:05:24;;;;;;;6.32;2.05;;;;;;;22.90;46.37;99497.34;5229178;28;20063;-74
2022/06/13 07:08:15;;;;;;;8.23;2.78;;;;;;;23.23;43.83;99491.03;5210103;28;20075;-73
2022/06/13 07:14:21;;;;;;;11.93;2.70;;;;;;;23.59;43.98;99495.88;5225574;28;20055;-74
2022/06/13 07:17:13;;;;;;;10.50;2.55;;;;;;;23.29;42.89;99486.66;5224623;28;20060;-74
2022/06/13 07:20:03;;;;;;;10.10;2.90;;;;;;;23.44;42.49;99488.03;5210703;28;20126;-74
2022/06/13 07:22:54;;;;;;;11.65;3.03;;;;;;;23.84;42.38;99482.44;5225846;28;20130;-73
2022/06/13 07:25:44;;;;;;;7.18;2.40;;;;;;;24.58;42.75;99488.97;5209992;28;20052;-73
2022/06/13 07:28:33;;;;;;;6.68;2.70;;;;;;;24.80;42.94;99502.09;5224516;28;20519;-73
2022/06/13 07:31:32;;;;;;;10.68;2.28;;;;;;;24.77;41.78;99503.38;5220617;28;20565;-73
2022/06/13 07:34:26;;;;;;;8.75;2.75;;;;;;;24.21;43.02;99504.25;5224980;28;20056;-72
2022/06/13 07:40:36;;;;;;;7.85;2.03;;;;;;;24.64;40.60;99511.66;5215310;28;20522;-73
2022/06/13 07:43:32;;;;;;;10.75;2.53;;;;;;;24.84;42.42;99515.00;5210057;28;20059;-72
2022/06/13 07:46:28;;;;;;;11.30;2.47;;;;;;;25.65;39.43;99501.34;5224955;28;20210;-73
2022/06/13 07:49:20;;;;;;;8.65;2.78;;;;;;;24.76;42.69;99514.44;5196533;28;20053;-73
2022/06/13 07:52:10;;;;;;;11.73;2.85;;;;;;;24.42;41.35;99510.38;5224669;28;20530;-73
2022/06/13 07:55:00;;;;;;;12.23;3.00;;;;;;;24.37;42.38;99506.44;5225064;28;20095;-73
2022/06/13 07:57:51;;;;;;;6.90;2.50;;;;;;;25.74;42.29;99511.66;5225097;28;20625;-73
2022/06/13 08:00:44;;;;;;;13.48;3.28;;;;;;;26.17;40.83;99516.09;5224401;28;20138;-73
2022/06/13 08:03:34;;;;;;;7.88;2.38;;;;;;;25.77;42.77;99521.25;5224602;28;20056;-73
2022/06/13 08:06:25;;;;;;;10.30;2.72;;;;;;;25.71;40.46;99520.28;5224992;28;20053;-73
2022/06/13 08:09:16;;;;;;;7.45;2.28;;;;;;;25.80;40.86;99517.25;5210271;28;20210;-73
2022/06/13 08:12:07;;;;;;;10.02;2.50;;;;;;;24.69;42.11;99522.66;5224398;28;20196;-73
2022/06/13 08:14:57;;;;;;;10.98;2.63;;;;;;;23.57;42.30;99499.81;5224150;28;20063;-73
2022/06/13 08:17:47;;;;;;;7.40;2.85;;;;;;;23.90;42.93;99533.00;5224123;28;20430;-73
2022/06/13 08:20:40;;;;;;;9.45;2.38;;;;;;;23.20;42.89;99515.81;5224186;28;20056;-73
2022/06/13 08:23:30;;;;;;;6.78;2.88;;;;;;;23.64;42.49;99539.38;5224222;28;20531;-73
2022/06/13 08:26:21;;;;;;;9.60;2.78;;;;;;;23.21;42.63;99534.53;5224353;28;20055;-72
2022/06/13 08:29:11;;;;;;;7.57;2.35;;;;;;;24.66;41.00;99533.94;5220705;28;20045;-73
2022/06/13 08:32:03;;;;;;;11.65;3.08;;;;;;;25.33;39.00;99536.84;5208580;28;20057;-73
2022/06/13 08:34:53;;;;;;;7.55;2.40;;;;;;;27.01;37.64;99534.97;5209112;28;20481;-73
2022/06/13 08:37:43;;;;;;;12.02;2.88;;;;;;;26.18;40.41;99533.22;5223610;28;20049;-73
2022/06/13 08:40:41;;;;;;;9.55;2.72;;;;;;;26.83;41.18;99533.22;5224112;28;20263;-73
2022/06/13 08:43:37;;;;;;;6.22;2.95;;;;;;;26.98;38.68;99531.91;5224090;28;20084;-73
2022/06/13 08:46:44;;;;;;;9.13;2.95;;;;;;;27.29;38.50;99533.44;5208865;28;20048;-73
2022/06/13 08:50:04;;;;;;;9.13;2.80;;;;;;;27.57;35.03;99521.75;5224074;28;20053;-73
2022/06/13 08:52:57;;;;;;;8.43;2.55;;;;;;;27.27;37.88;99533.66;5223794;28;20088;-73
2022/06/13 08:56:05;;;;;;;10.65;3.08;;;;;;;25.43;39.19;99533.56;5223587;28;20056;-73
2022/06/13 08:58:59;;;;;;;10.13;2.50;;;;;;;26.18;39.67;99531.31;5223405;28;20498;-73
2022/06/13 09:02:05;;;;;;;9.25;2.35;;;;;;;26.45;37.72;99541.78;5223640;28;20107;-73
2022/06/13 09:05:06;;;;;;;8.82;2.42;;;;;;;25.15;39.94;99537.66;5223450;28;20498;-72
2022/06/13 09:08:07;;;;;;;11.00;2.83;;;;;;;26.90;38.61;99549.41;5223675;28;20044;-73
2022/06/13 09:11:20;;;;;;;8.77;2.50;;;;;;;26.40;36.70;99544.38;5193862;28;20079;-73
2022/06/13 09:14:23;;;;;;;9.93;2.70;;;;;;;26.50;38.20;99549.28;5223146;28;20439;-72
2022/06/13 09:17:41;;;;;;;7.95;2.50;;;;;;;26.74;36.50;99553.66;5223405;28;20095;-72
2022/06/13 09:20:41;;;;;;;8.70;2.40;;;;;;;25.89;38.05;99549.28;5223212;28;20059;-72
2022/06/13 09:23:41;;;;;;;9.40;2.17;;;;;;;25.15;39.35;99548.50;5208839;28;20135;-72
2022/06/13 09:26:46;;;;;;;9.82;2.63;;;;;;;23.97;41.20;99535.66;5221991;28;20075;-72
2022/06/13 09:30:20;;;;;;;7.78;2.45;;;;;;;23.79;41.00;99547.22;5223094;28;20307;-72
2022/06/13 09:33:18;;;;;;;5.70;2.65;;;;;;;24.51;38.89;99539.72;5159618;28;20072;-72
2022/06/13 09:36:19;;;;;;;6.25;2.35;;;;;;;25.15;42.20;99545.81;5222378;28;20106;-72
2022/06/13 09:39:12;;;;;;;7.75;2.20;;;;;;;25.61;39.51;99543.59;5223165;28;20159;-72
2022/06/13 09:42:09;;;;;;;9.15;2.38;;;;;;;26.23;36.38;99555.09;5207400;28;20053;-72
2022/06/13 09:45:15;;;;;;;7.03;2.42;;;;;;;25.77;38.29;99551.13;5223091;28;20354;-72
2022/06/13 09:48:58;;;;;;;9.90;2.83;;;;;;;24.78;36.88;99551.16;5222743;28;20648;-72
2022/06/13 09:52:07;;;;;;;5.88;2.08;;;;;;;24.76;37.87;99555.13;5219832;28;20059;-73
2022/06/13 09:55:22;;;;;;;7.28;2.08;;;;;;;24.53;37.42;99561.16;5223152;28;20133;-72
2022/06/13 09:58:30;;;;;;;12.13;3.05;;;;;;;24.69;39.37;99555.19;5222827;28;20040;-72
2022/06/13 10:01:26;;;;;;;8.68;2.20;;;;;;;25.61;38.13;99554.47;5207506;28;20053;-73
2022/06/13 10:04:43;;;;;;;9.38;2.60;;;;;;;24.54;39.13;99555.53;5206879;28;20060;-72
2022/06/13 10:07:38;;;;;;;10.10;3.15;;;;;;;24.43;39.88;99556.22;5223100;28;20045;-73
2022/06/13 10:10:45;;;;;;;8.10;2.63;;;;;;;25.72;40.04;99532.78;5193639;28;20118;-72
2022/06/13 10:13:54;;;;;;;12.70;2.95;;;;;;;24.92;38.45;99543.72;5223010;28;20095;-72
2022/06/13 10:17:09;;;;;;;7.10;2.30;;;;;;;25.24;38.59;99541.75;5221857;28;20052;-73
2022/06/13 10:20:13;;;;;;;7.65;2.08;;;;;;;25.30;38.30;99540.00;5223206;28;20067;-72
2022/06/13 10:23:03;;;;;;;;;;;;;;;24.68;37.54;99553.53;5209692;28;20044;-72
2022/06/13 10:26:19;;;;;;;9.10;2.70;;;;;;;24.50;39.07;99540.78;5222366;28;19927;-72
2022/06/13 10:29:28;;;;;;;6.32;2.55;;;;;;;25.02;38.12;99556.75;5213514;28;20056;-72
2022/06/13 10:32:26;;;;;;;7.18;2.05;;;;;;;25.15;38.22;99551.22;5206779;28;20057;-72
2022/06/13 10:35:39;;;;;;;6.38;2.05;;;;;;;26.48;35.72;99557.66;5221353;28;20060;-72
2022/06/13 10:38:48;;;;;;;6.82;1.83;;;;;;;26.32;33.98;99547.44;5222084;28;20071;-72
2022/06/13 10:41:46;;;;;;;7.40;2.38;;;;;;;25.39;33.42;99546.78;5223476;28;20056;-73
2022/06/13 10:44:38;;;;;;;8.90;2.20;;;;;;;25.06;36.93;99541.69;5225783;28;20503;-73
2022/06/13 10:47:40;;;;;;;6.25;1.73;;;;;;;25.48;36.42;99552.75;5211192;28;20045;-73
2022/06/13 10:50:36;;;;;;;4.30;1.40;;;;;;;25.72;35.32;99540.94;5222971;28;20056;-73
2022/06/13 10:53:46;;;;;;;4.25;1.88;;;;;;;25.28;35.30;99553.78;5226275;28;20079;-73
2022/06/13 10:56:44;;;;;;;6.05;1.90;;;;;;;25.96;33.83;99541.91;5226019;28;20419;-73
2022/06/13 10:59:37;;;;;;;5.78;2.10;;;;;;;25.03;36.42;99550.28;5211025;28;20596;-73
2022/06/13 11:02:27;;;;;;;7.82;1.88;;;;;;;26.51;36.74;99538.16;5210489;28;20128;-73
2022/06/13 11:05:24;;;;;;;5.63;1.90;;;;;;;26.46;33.25;99548.88;5226066;28;20059;-73
2022/06/13 11:08:15;;;;;;;4.32;1.55;;;;;;;25.15;36.75;99531.41;5225809;28;20045;-73
2022/06/13 11:11:17;;;;;;;6.97;1.60;;;;;;;24.58;35.65;99543.19;5225997;28;20480;-71
2022/06/13 11:14:25;;;;;;;5.82;1.70;;;;;;;25.33;33.77;99544.13;5213460;28;20064;-71
2022/06/13 11:23:51;;;;;;;4.00;1.60;;;;;;;25.34;36.59;99537.66;5221767;28;20068;-71
2022/06/13 11:30:32;;;;;;;4.78;1.67;;;;;;;24.19;36.22;99548.88;5210044;28;20515;-72
2022/06/13 11:33:40;;;;;;;8.70;1.95;;;;;;;23.56;37.08;99550.44;5212545;28;20055;-72
2022/06/13 11:36:30;;;;;;;4.65;1.73;;;;;;;23.88;37.47;99543.22;5225240;28;20503;-72
2022/06/13 11:39:31;;;;;;;3.78;1.88;;;;;;;24.74;36.48;99527.41;5218415;28;20517;-72
2022/06/13 11:42:30;;;;;;;7.45;1.75;;;;;;;23.48;34.61;99547.97;5209718;28;20045;-71
2022/06/13 11:45:27;;;;;;;5.70;1.50;;;;;;;23.66;35.91;99553.50;5224010;28;20055;-72
2022/06/13 11:48:18;;;;;;;4.95;1.77;;;;;;;23.23;36.46;99541.59;5225355;28;20092;-72
2022/06/13 11:51:19;;;;;;;6.32;1.77;;;;;;;23.63;35.64;99539.56;5209945;28;20076;-72
2022/06/13 11:54:21;;;;;;;4.65;1.63;;;;;;;23.87;35.53;99538.03;5224264;28;20049;-72
2022/06/13 11:57:14;;;;;;;6.85;1.65;;;;;;;24.92;33.78;99530.16;5209121;28;20305;-73
2022/06/13 12:00:21;;;;;;;6.38;1.75;;;;;;;24.79;39.24;99536.53;5209509;28;20048;-72
2022/06/13 12:03:26;;;;;;;5.68;1.67;;;;;;;25.23;37.41;99531.09;5211710;28;20492;-72
2022/06/13 12:06:18;;;;;;;5.93;1.50;;;;;;;25.92;32.97;99545.28;5224608;28;20122;-73
2022/06/13 12:09:16;;;;;;;8.32;1.52;;;;;;;25.70;33.52;99523.22;5215344;28;20458;-72
2022/06/13 12:12:08;;;;;;;5.50;1.50;;;;;;;26.19;31.52;99535.72;5209479;28;20095;-72
2022/06/13 12:15:10;;;;;;;5.15;1.58;;;;;;;26.27;35.74;99528.28;5224532;28;20178;-72
2022/06/13 12:18:12;;;;;;;3.92;1.52;;;;;;;25.07;32.88;99532.50;5216515;28;20076;-72
2022/06/13 12:21:15;;;;;;;5.55;1.60;;;;;;;25.93;34.42;99525.25;5224071;28;20057;-73
2022/06/13 12:24:21;;;;;;;9.73;2.05;;;;;;;23.60;34.84;99542.72;5224295;28;20044;-72
2022/06/13 12:27:36;;;;;;;5.63;1.60;;;;;;;25.57;34.61;99535.09;5224218;28;20056;-72
2022/06/13 12:30:35;;;;;;;4.18;1.50;;;;;;;25.26;34.49;99526.03;5217563;28;20067;-73
2022/06/13 12:33:47;;;;;;;4.55;1.40;;;;;;;24.47;33.85;99530.38;5209903;28;20059;-72
2022/06/13 12:36:54;;;;;;;5.35;1.50;;;;;;;24.81;35.33;99537.13;5223717;28;20048;-72
2022/06/13 12:40:02;;;;;;;6.82;1.88;;;;;;;24.62;35.25;99543.56;5224120;28;20059;-72
2022/06/13 12:43:07;;;;;;;6.60;1.83;;;;;;;24.30;34.43;99535.44;5208906;28;20052;-72
2022/06/13 12:46:26;;;;;;;3.70;1.70;;;;;;;23.84;35.23;99517.66;5223810;28;20131;-72
2022/06/13 12:50:05;;;;;;;5.40;1.60;;;;;;;24.79;34.33;99543.84;5223745;28;20088;-72
2022/06/13 12:53:10;;;;;;;5.90;1.80;;;;;;;24.04;34.08;99539.19;5201937;28;20057;-72
2022/06/13 12:56:15;;;;;;;4.40;1.58;;;;;;;24.26;34.47;99538.81;5208640;28;20051;-72
2022/06/13 12:59:14;;;;;;;4.65;1.60;;;;;;;23.84;35.47;99536.59;5208216;28;20052;-72
2022/06/13 13:02:23;;;;;;;6.80;1.42;;;;;;;24.71;34.79;99542.25;5223138;28;20090;-72
2022/06/13 13:05:26;;;;;;;5.85;1.58;;;;;;;24.88;34.98;99539.78;5222620;28;20045;-72
2022/06/13 13:08:36;;;;;;;5.45;1.60;;;;;;;24.99;35.42;99540.94;5223263;28;20471;-72
2022/06/13 13:12:09;;;;;;;7.68;1.70;;;;;;;24.23;33.97;99525.72;5223118;28;20095;-72
2022/06/13 13:15:20;;;;;;;9.60;2.00;;;;;;;23.84;35.61;99525.75;5208852;28;20060;-72
2022/06/13 13:18:32;;;;;;;4.85;1.50;;;;;;;24.64;33.75;99536.06;5223237;28;20501;-73
2022/06/13 13:21:33;;;;;;;7.45;1.73;;;;;;;24.88;35.43;99533.53;5207976;28;20063;-72
2022/06/13 13:24:34;;;;;;;4.97;1.50;;;;;;;24.95;33.10;99528.88;5223075;28;20456;-72
2022/06/13 13:27:26;;;;;;;7.07;1.77;;;;;;;24.49;34.77;99527.41;5223113;28;20060;-72
2022/06/13 13:30:20;;;;;;;4.18;1.70;;;;;;;24.82;32.29;99527.13;5221833;28;20063;-72
2022/06/13 13:33:39;;;;;;;3.67;1.50;;;;;;;24.63;34.00;99534.38;5223287;28;20186;-72
2022/06/13 13:36:48;;;;;;;9.73;1.88;;;;;;;24.38;33.84;99526.22;5192632;28;20052;-73
2022/06/13 13:39:48;;;;;;;8.77;1.60;;;;;;;24.94;33.77;99532.66;5223485;28;20056;-72
2022/06/13 13:42:56;;;;;;;4.93;1.55;;;;;;;25.03;34.98;99528.56;5222684;28;20080;-73
2022/06/13 13:46:07;;;;;;;2.88;1.25;;;;;;;24.61;32.23;99526.47;5222972;28;20053;-72
2022/06/13 13:49:17;;;;;;;4.10;1.55;;;;;;;24.13;33.32;99526.19;5210098;28;20052;-72
2022/06/13 13:52:15;;;;;;;4.63;1.52;;;;;;;24.36;34.47;99525.59;5219980;28;20071;-72
2022/06/13 13:55:22;;;;;;;8.52;1.70;;;;;;;24.33;32.41;99535.00;5223153;28;20561;-72
2022/06/13 13:58:31;;;;;;;6.70;1.48;;;;;;;23.70;33.63;99528.75;5223002;28;20208;-72
2022/06/13 14:01:57;;;;;;;7.43;1.80;;;;;;;23.68;34.69;99521.69;5207595;28;20055;-72
2022/06/13 14:04:50;;;;;;;4.90;1.55;;;;;;;24.27;34.94;99518.78;5214888;28;20057;-72
2022/06/13 14:07:54;;;;;;;9.05;1.80;;;;;;;23.35;33.25;99521.78;5222609;28;20120;-72
2022/06/13 14:10:52;;;;;;;7.35;1.92;;;;;;;23.26;34.76;99522.25;5222702;28;20154;-72
2022/06/13 14:13:47;;;;;;;5.35;1.90;;;;;;;23.37;34.46;99524.28;5200998;28;20107;-72
2022/06/13 14:16:47;;;;;;;4.68;1.60;;;;;;;24.03;32.94;99518.53;5208467;28;20055;-72
2022/06/13 14:19:38;;;;;;;4.32;1.95;;;;;;;23.21;33.06;99525.56;5226662;28;20522;-72
2022/06/13 14:22:36;;;;;;;6.40;1.52;;;;;;;22.86;33.81;99517.72;5226556;28;20202;-71
2022/06/13 14:25:33;;;;;;;4.50;1.67;;;;;;;22.75;34.30;99518.38;5211468;28;20052;-72
2022/06/13 14:28:23;;;;;;;7.10;1.67;;;;;;;23.27;33.31;99503.06;5226552;28;20045;-72